createdAt,value
2019-04-10T00:00:02.446Z,110.48
2019-04-10T00:02:07.094Z,112.20
2019-04-10T00:04:11.104Z,112.27
2019-04-10T00:06:17.050Z,115.30
2019-04-10T00:08:20.522Z,111.95
2019-04-10T00:10:24.412Z,112.85
2019-04-10T00:12:29.620Z,122.95
2019-04-10T00:14:34.508Z,122.42
2019-04-10T00:16:38.499Z,112.60
2019-04-10T00:18:42.643Z,119.53
2019-04-10T00:20:46.986Z,124.90
2019-04-10T00:22:51.181Z,116.60
2019-04-10T00:24:55.038Z,115.60
2019-04-10T00:26:59.184Z,126.55
2019-04-10T00:29:03.621Z,116.93
2019-04-10T00:31:07.603Z,115.57
2019-04-10T00:33:12.283Z,113.63
2019-04-10T00:35:16.143Z,115.93
2019-04-10T00:37:26.387Z,103.37
2019-04-10T00:39:26.452Z,122.40
2019-04-10T00:41:30.286Z,108.80
2019-04-10T00:43:35.064Z,109.37
2019-04-10T00:45:39.774Z,97.03
2019-04-10T00:47:43.471Z,104.67
2019-04-10T00:49:48.229Z,101.73
2019-04-10T00:51:52.053Z,106.93
2019-04-10T00:53:55.890Z,113.67
2019-04-10T00:55:59.946Z,113.57
2019-04-10T00:58:04.209Z,99.67
2019-04-10T01:00:09.137Z,105.97
2019-04-10T01:02:13.053Z,119.10
2019-04-10T01:04:16.949Z,104.27
2019-04-10T01:06:21.968Z,105.30
2019-04-10T01:08:26.505Z,103.00
2019-04-10T01:10:30.518Z,114.83
2019-04-10T01:12:34.433Z,105.63
2019-04-10T01:14:38.322Z,119.77
2019-04-10T01:16:41.863Z,112.33
2019-04-10T01:18:45.818Z,109.40
2019-04-10T01:20:50.148Z,118.23
2019-04-10T01:22:53.774Z,113.23
2019-04-10T01:24:57.821Z,109.40
2019-04-10T01:27:01.970Z,111.05
2019-04-10T01:29:06.104Z,118.00
2019-04-10T01:31:10.824Z,108.83
2019-04-10T01:33:14.533Z,108.93
2019-04-10T01:35:18.423Z,107.27
2019-04-10T01:37:22.951Z,106.73
2019-04-10T01:39:28.615Z,113.05
2019-04-10T01:41:32.879Z,113.55
2019-04-10T01:43:37.187Z,121.13
2019-04-10T01:45:41.808Z,114.22
2019-04-10T01:47:46.052Z,122.25
2019-04-10T01:49:50.347Z,111.65
2019-04-10T01:51:55.311Z,119.77
2019-04-10T01:54:00.546Z,120.40
2019-04-10T01:56:05.271Z,129.35
2019-04-10T01:58:13.812Z,117.70
2019-04-10T02:00:25.761Z,111.28
2019-04-10T02:02:39.076Z,114.85
2019-04-10T02:04:43.860Z,109.27
2019-04-10T02:06:48.011Z,113.75
2019-04-10T02:08:52.230Z,116.30
2019-04-10T02:10:56.597Z,112.03
2019-04-10T02:13:01.190Z,109.55
2019-04-10T02:15:07.997Z,109.40
2019-04-10T02:17:12.650Z,108.40
2019-04-10T02:19:16.761Z,113.25
2019-04-10T02:21:20.985Z,105.80
2019-04-10T02:23:26.016Z,103.53
2019-04-10T02:25:30.635Z,104.47
2019-04-10T02:27:34.543Z,106.07
2019-04-10T02:29:39.563Z,107.83
2019-04-10T02:31:44.225Z,112.25
2019-04-10T02:33:49.663Z,115.10
2019-04-10T02:35:54.851Z,106.90
2019-04-10T02:38:18.558Z,110.40
2019-04-10T02:40:09.075Z,112.22
2019-04-10T02:42:14.266Z,109.25
2019-04-10T02:44:18.754Z,108.05
2019-04-10T02:46:23.109Z,101.83
2019-04-10T02:48:27.593Z,111.10
2019-04-10T02:50:31.461Z,102.70
2019-04-10T02:52:38.311Z,98.45
2019-04-10T02:54:41.895Z,106.92
2019-04-10T02:56:47.697Z,99.83
2019-04-10T02:58:51.718Z,98.70
2019-04-10T03:00:56.341Z,106.20
2019-04-10T03:03:01.386Z,101.12
2019-04-10T03:05:07.130Z,104.78
2019-04-10T03:07:11.781Z,117.93
2019-04-10T03:09:32.191Z,107.47
2019-04-10T03:11:24.348Z,98.97
2019-04-10T03:13:30.816Z,97.50
2019-04-10T03:15:35.946Z,102.07
2019-04-10T03:17:42.100Z,103.02
2019-04-10T03:19:47.491Z,103.07
2019-04-10T03:21:51.461Z,92.20
2019-04-10T03:23:55.986Z,99.52
2019-04-10T03:26:00.136Z,118.65
2019-04-10T03:28:05.066Z,114.37
2019-04-10T03:30:12.131Z,99.03
2019-04-10T03:32:36.553Z,103.85
2019-04-10T03:34:42.718Z,103.92
2019-04-10T03:36:45.647Z,107.47
2019-04-10T03:38:58.590Z,97.47
2019-04-10T03:40:55.560Z,99.00
2019-04-10T03:42:59.747Z,98.80
2019-04-10T03:45:03.759Z,93.47
2019-04-10T03:47:09.103Z,97.62
2019-04-10T03:49:13.670Z,98.30
2019-04-10T03:51:18.567Z,97.17
2019-04-10T03:53:23.257Z,116.82
2019-04-10T03:55:29.252Z,106.37
2019-04-10T03:57:33.123Z,98.17
2019-04-10T03:59:38.946Z,91.03
2019-04-10T04:01:43.036Z,89.47
2019-04-10T04:03:47.135Z,89.42
2019-04-10T04:05:51.313Z,88.30
2019-04-10T04:07:55.042Z,87.03
2019-04-10T04:09:59.989Z,89.67
2019-04-10T04:12:04.475Z,84.28
2019-04-10T04:14:08.285Z,82.50
2019-04-10T04:16:12.915Z,80.17
2019-04-10T04:18:17.206Z,87.90
2019-04-10T04:20:21.404Z,87.30
2019-04-10T04:22:25.251Z,84.60
2019-04-10T04:24:29.425Z,87.08
2019-04-10T04:26:33.637Z,83.52
2019-04-10T04:28:38.059Z,79.25
2019-04-10T04:30:42.055Z,88.42
2019-04-10T04:32:46.228Z,87.27
2019-04-10T04:34:50.004Z,93.33
2019-04-10T04:36:54.189Z,90.07
2019-04-10T04:38:58.097Z,91.90
2019-04-10T04:41:02.481Z,84.90
2019-04-10T04:43:06.625Z,88.50
2019-04-10T04:45:10.931Z,86.35
2019-04-10T04:47:15.690Z,89.35
2019-04-10T04:49:20.663Z,86.42
2019-04-10T04:51:27.289Z,97.90
2019-04-10T04:53:32.236Z,94.32
2019-04-10T04:55:38.147Z,82.00
2019-04-10T04:57:42.335Z,79.03
2019-04-10T04:59:46.567Z,78.70
2019-04-10T05:01:50.368Z,78.63
2019-04-10T05:03:54.844Z,76.90
2019-04-10T05:05:58.694Z,79.90
2019-04-10T05:08:05.129Z,79.00
2019-04-10T05:10:09.510Z,78.47
2019-04-10T05:12:13.407Z,78.23
2019-04-10T05:14:17.518Z,95.80
2019-04-10T05:16:22.514Z,80.55
2019-04-10T05:18:27.479Z,81.87
2019-04-10T05:20:42.224Z,78.97
2019-04-10T05:22:36.713Z,75.00
2019-04-10T05:24:40.560Z,73.33
2019-04-10T05:26:44.884Z,71.55
2019-04-10T05:28:49.339Z,75.23
2019-04-10T05:30:52.885Z,81.37
2019-04-10T05:32:57.705Z,67.17
2019-04-10T05:35:04.321Z,64.15
2019-04-10T05:37:07.427Z,71.97
2019-04-10T05:39:11.315Z,69.40
2019-04-10T05:41:15.542Z,72.15
2019-04-10T05:43:19.987Z,71.85
2019-04-10T05:45:24.159Z,70.70
2019-04-10T05:47:28.314Z,71.00
2019-04-10T05:49:33.147Z,81.60
2019-04-10T05:51:37.493Z,101.90
2019-04-10T05:53:41.318Z,70.80
2019-04-10T05:55:45.521Z,68.70
2019-04-10T05:57:49.643Z,69.17
2019-04-10T05:59:54.392Z,69.25
2019-04-10T06:01:58.952Z,66.65
2019-04-10T06:04:03.134Z,71.07
2019-04-10T06:06:08.383Z,65.45
2019-04-10T06:08:12.550Z,70.67
2019-04-10T06:10:17.540Z,73.42
2019-04-10T06:12:22.348Z,63.52
2019-04-10T06:14:26.605Z,64.75
2019-04-10T06:16:30.467Z,67.70
2019-04-10T06:18:35.254Z,61.50
2019-04-10T06:20:39.694Z,64.27
2019-04-10T06:22:45.389Z,70.22
2019-04-10T06:24:49.624Z,68.30
2019-04-10T06:26:54.093Z,68.05
2019-04-10T06:28:58.981Z,60.43
2019-04-10T06:31:04.102Z,63.52
2019-04-10T06:33:08.071Z,66.62
2019-04-10T06:35:13.562Z,63.92
2019-04-10T06:37:17.783Z,61.73
2019-04-10T06:39:22.087Z,89.87
2019-04-10T06:41:26.406Z,61.63
2019-04-10T06:43:30.911Z,59.13
2019-04-10T06:45:35.767Z,60.10
2019-04-10T06:47:39.563Z,69.37
2019-04-10T06:49:45.672Z,55.23
2019-04-10T06:51:49.426Z,62.93
2019-04-10T06:54:00.954Z,58.45
2019-04-10T06:55:59.261Z,56.35
2019-04-10T06:58:03.411Z,58.25
2019-04-10T07:00:13.706Z,56.85
2019-04-10T07:02:24.637Z,54.35
2019-04-10T07:04:24.452Z,57.75
2019-04-10T07:06:45.186Z,53.17
2019-04-10T07:08:34.011Z,53.40
2019-04-10T07:10:48.355Z,51.30
2019-04-10T07:12:44.015Z,53.65
2019-04-10T07:14:50.694Z,50.38
2019-04-10T07:16:54.905Z,54.95
2019-04-10T07:19:03.128Z,50.08
2019-04-10T07:21:04.391Z,51.33
2019-04-10T07:23:08.571Z,54.03
2019-04-10T07:25:14.242Z,50.00
2019-04-10T07:27:19.434Z,55.47
2019-04-10T07:29:26.733Z,54.30
2019-04-10T07:31:32.418Z,50.33
2019-04-10T07:33:35.011Z,55.50
2019-04-10T07:35:38.806Z,50.67
2019-04-10T07:37:42.651Z,54.25
2019-04-10T07:39:46.819Z,49.88
2019-04-10T07:41:51.194Z,51.80
2019-04-10T07:43:56.905Z,52.58
2019-04-10T07:46:01.116Z,51.10
2019-04-10T07:48:06.531Z,56.15
2019-04-10T07:50:12.223Z,52.67
2019-04-10T07:52:16.867Z,55.75
2019-04-10T07:54:22.637Z,50.38
2019-04-10T07:56:28.080Z,51.15
2019-04-10T07:58:32.385Z,57.40
2019-04-10T08:00:36.728Z,55.23
2019-04-10T08:02:41.309Z,52.80
2019-04-10T08:04:45.622Z,56.83
2019-04-10T08:06:50.190Z,51.20
2019-04-10T08:08:55.404Z,52.43
2019-04-10T08:10:59.683Z,53.02
2019-04-10T08:13:04.575Z,47.30
2019-04-10T08:15:09.202Z,52.83
2019-04-10T08:17:14.320Z,54.93
2019-04-10T08:19:18.701Z,53.50
2019-04-10T08:21:22.604Z,52.23
2019-04-10T08:23:26.708Z,85.15
2019-04-10T08:25:31.117Z,78.72
2019-04-10T08:27:36.250Z,64.37
2019-04-10T08:29:40.853Z,58.40
2019-04-10T08:31:46.173Z,53.48
2019-04-10T08:33:50.527Z,54.65
2019-04-10T08:35:54.830Z,51.40
2019-04-10T08:37:59.238Z,56.25
2019-04-10T08:40:03.624Z,66.75
2019-04-10T08:42:08.384Z,86.67
2019-04-10T08:44:15.585Z,61.23
2019-04-10T08:46:19.895Z,63.20
2019-04-10T08:48:25.087Z,59.42
2019-04-10T08:50:30.243Z,60.73
2019-04-10T08:52:34.701Z,52.70
2019-04-10T08:54:38.910Z,51.25
2019-04-10T08:56:42.902Z,55.80
2019-04-10T08:58:48.230Z,79.25
2019-04-10T09:00:53.980Z,51.25
2019-04-10T09:02:58.524Z,53.38
2019-04-10T09:05:05.679Z,48.95
2019-04-10T09:07:09.808Z,53.50
2019-04-10T09:09:15.057Z,47.43
2019-04-10T09:11:26.377Z,50.23
2019-04-10T09:13:25.384Z,47.73
2019-04-10T09:15:29.967Z,48.02
2019-04-10T09:17:34.153Z,47.03
2019-04-10T09:19:38.276Z,47.23
2019-04-10T09:21:43.478Z,52.17
2019-04-10T09:23:52.780Z,54.13
2019-04-10T09:25:53.472Z,43.40
2019-04-10T09:27:57.989Z,48.58
2019-04-10T09:30:02.725Z,43.55
2019-04-10T09:32:06.934Z,45.28
2019-04-10T09:34:11.780Z,46.95
2019-04-10T09:36:17.278Z,42.15
2019-04-10T09:38:22.944Z,48.42
2019-04-10T09:40:27.948Z,45.05
2019-04-10T09:42:31.870Z,42.05
2019-04-10T09:44:35.944Z,52.13
2019-04-10T09:46:40.813Z,49.42
2019-04-10T09:48:45.048Z,46.33
2019-04-10T09:50:50.276Z,48.35
2019-04-10T09:52:54.595Z,51.90
2019-04-10T09:54:59.589Z,50.28
2019-04-10T09:57:03.724Z,56.50
2019-04-10T09:59:07.940Z,51.15
2019-04-10T10:01:15.231Z,51.13
2019-04-10T10:03:19.479Z,48.85
2019-04-10T10:05:23.361Z,48.52
2019-04-10T10:07:28.458Z,48.65
2019-04-10T10:09:32.680Z,45.03
2019-04-10T10:11:38.606Z,48.42
2019-04-10T10:13:42.856Z,46.33
2019-04-10T10:15:47.048Z,41.05
2019-04-10T10:17:50.870Z,40.67
2019-04-10T10:19:55.372Z,41.70
2019-04-10T10:22:01.834Z,42.48
2019-04-10T10:24:05.206Z,43.58
2019-04-10T10:26:09.977Z,43.33
2019-04-10T10:28:13.547Z,42.00
2019-04-10T10:30:18.083Z,40.50
2019-04-10T10:32:21.896Z,38.17
2019-04-10T10:34:26.129Z,31.23
2019-04-10T10:36:36.785Z,34.07
2019-04-10T10:38:35.338Z,34.73
2019-04-10T10:40:39.422Z,31.87
2019-04-10T10:42:43.528Z,29.17
2019-04-10T10:44:48.072Z,29.67
2019-04-10T10:46:52.106Z,31.27
2019-04-10T10:48:56.000Z,30.93
2019-04-10T10:50:59.908Z,29.17
2019-04-10T10:53:04.037Z,29.83
2019-04-10T10:55:09.733Z,28.70
2019-04-10T10:57:13.667Z,32.30
2019-04-10T10:59:17.630Z,27.97
2019-04-10T11:01:22.124Z,30.30
2019-04-10T11:03:26.507Z,25.63
2019-04-10T11:05:31.610Z,30.20
2019-04-10T11:07:35.748Z,26.30
2019-04-10T11:09:40.202Z,28.97
2019-04-10T11:14:07.832Z,23.70
2019-04-10T11:16:13.078Z,24.80
2019-04-10T11:18:18.013Z,27.03
2019-04-10T11:20:21.697Z,25.73
2019-04-10T11:22:26.191Z,23.87
2019-04-10T11:24:31.584Z,23.97
2019-04-10T11:26:36.186Z,21.77
2019-04-10T11:28:41.870Z,26.07
2019-04-10T11:30:47.295Z,22.20
2019-04-10T11:32:50.884Z,24.90
2019-04-10T11:34:55.593Z,21.30
2019-04-10T11:37:16.639Z,23.13
2019-04-10T11:39:17.107Z,25.70
2019-04-10T11:41:14.981Z,27.87
2019-04-10T11:43:19.125Z,29.07
2019-04-10T11:45:25.458Z,29.30
2019-04-10T11:47:29.198Z,33.60
2019-04-10T11:49:36.259Z,55.40
2019-04-10T11:51:39.350Z,34.20
2019-04-10T11:53:45.405Z,37.30
2019-04-10T11:55:50.998Z,41.47
2019-04-10T11:57:54.666Z,34.77
2019-04-10T12:00:02.518Z,38.20
2019-04-10T12:02:06.494Z,33.57
2019-04-10T12:04:10.940Z,34.20
2019-04-10T12:06:15.715Z,32.77
2019-04-10T12:08:46.289Z,34.23
2019-04-10T12:12:31.390Z,35.53
2019-04-10T12:14:35.474Z,37.50
2019-04-10T12:16:39.303Z,36.13
2019-04-10T12:18:43.205Z,35.30
2019-04-10T12:20:46.822Z,33.13
2019-04-10T12:22:50.373Z,31.13
2019-04-10T12:24:54.374Z,33.10
2019-04-10T12:26:58.386Z,33.87
2019-04-10T12:29:02.546Z,34.90
2019-04-10T12:31:06.601Z,29.83
2019-04-10T12:33:10.133Z,34.37
2019-04-10T12:35:13.833Z,31.97
2019-04-10T12:37:17.922Z,35.17
2019-04-10T12:39:22.574Z,29.63
2019-04-10T12:41:27.627Z,28.60
2019-04-10T12:43:32.650Z,33.77
2019-04-10T12:45:36.530Z,29.87
2019-04-10T12:47:40.055Z,29.63
2019-04-10T12:49:43.933Z,29.63
2019-04-10T12:51:47.948Z,29.90
2019-04-10T12:53:51.967Z,32.40
2019-04-10T12:55:55.851Z,32.30
2019-04-10T12:58:06.708Z,33.27
2019-04-10T13:00:08.353Z,31.97
2019-04-10T13:02:13.415Z,31.23
2019-04-10T13:04:18.075Z,31.67
2019-04-10T13:06:22.088Z,32.13
2019-04-10T13:08:35.148Z,35.07
2019-04-10T13:10:31.743Z,30.23
2019-04-10T13:12:35.589Z,49.27
2019-04-10T13:14:39.866Z,35.40
2019-04-10T13:16:44.587Z,32.87
2019-04-10T13:18:49.000Z,35.97
2019-04-10T13:20:53.511Z,41.53
2019-04-10T13:22:58.264Z,33.87
2019-04-10T13:25:01.945Z,31.93
2019-04-10T13:27:06.208Z,33.33
2019-04-10T13:29:10.218Z,34.90
2019-04-10T13:31:13.737Z,35.80
2019-04-10T13:33:17.615Z,32.73
2019-04-10T13:35:22.014Z,30.77
2019-04-10T13:37:26.285Z,31.47
2019-04-10T13:39:30.868Z,30.90
2019-04-10T13:41:36.592Z,40.87
2019-04-10T13:43:40.242Z,35.47
2019-04-10T13:45:44.125Z,32.63
2019-04-10T13:47:48.549Z,38.97
2019-04-10T13:49:52.989Z,32.93
2019-04-10T13:52:04.379Z,36.90
2019-04-10T13:56:43.695Z,30.27
2019-04-10T13:58:48.703Z,37.03
2019-04-10T14:00:53.600Z,31.33
2019-04-10T14:02:58.293Z,32.93
2019-04-10T14:05:01.881Z,36.57
2019-04-10T14:07:05.586Z,36.87
2019-04-10T14:09:30.101Z,30.67
2019-04-10T14:11:24.846Z,31.57
2019-04-10T14:13:29.616Z,34.20
2019-04-10T14:15:33.830Z,31.43
2019-04-10T14:17:37.700Z,27.83
2019-04-10T14:19:41.603Z,30.87
2019-04-10T14:21:45.510Z,28.60
2019-04-10T14:23:49.407Z,30.83
2019-04-10T14:25:55.957Z,29.53
2019-04-10T14:28:00.603Z,32.53
2019-04-10T14:30:09.135Z,31.60
2019-04-10T14:32:15.372Z,29.77
2019-04-10T14:34:20.218Z,32.40
2019-04-10T14:36:24.404Z,31.30
2019-04-10T14:38:27.879Z,32.67
2019-04-10T14:40:32.526Z,30.00
2019-04-10T14:42:36.615Z,36.00
2019-04-10T14:44:41.009Z,35.03
2019-04-10T14:46:46.352Z,28.50
2019-04-10T14:48:50.397Z,29.33
2019-04-10T14:50:54.679Z,30.43
2019-04-10T14:52:59.159Z,30.73
2019-04-10T14:55:04.042Z,29.90
2019-04-10T14:57:08.077Z,31.97
2019-04-10T14:59:12.193Z,31.23
2019-04-10T15:01:16.095Z,31.77
2019-04-10T15:03:22.489Z,30.33
2019-04-10T15:05:26.565Z,32.93
2019-04-10T15:07:31.065Z,31.77
2019-04-10T15:09:34.767Z,31.30
2019-04-10T15:11:38.784Z,29.63
2019-04-10T15:13:42.690Z,30.77
2019-04-10T15:15:46.497Z,29.50
2019-04-10T15:17:50.659Z,30.33
2019-04-10T15:19:54.608Z,26.83
2019-04-10T15:21:59.109Z,26.30
2019-04-10T15:24:03.560Z,28.67
2019-04-10T15:26:08.053Z,30.70
2019-04-10T15:28:12.183Z,28.60
2019-04-10T15:30:16.390Z,26.73
2019-04-10T15:32:20.312Z,30.53
2019-04-10T15:34:24.231Z,27.23
2019-04-10T15:36:28.421Z,30.00
2019-04-10T15:38:32.423Z,28.13
2019-04-10T15:40:36.628Z,28.67
2019-04-10T15:42:40.587Z,27.17
2019-04-10T15:44:44.546Z,30.10
2019-04-10T15:46:49.062Z,29.73
2019-04-10T15:48:52.981Z,27.50
2019-04-10T15:50:56.625Z,27.30
2019-04-10T15:53:00.482Z,28.03
2019-04-10T15:55:05.708Z,28.40
2019-04-10T15:57:10.753Z,27.47
2019-04-10T15:59:14.345Z,25.50
2019-04-10T16:01:20.205Z,25.03
2019-04-10T16:03:24.107Z,28.20
2019-04-10T16:05:29.208Z,29.83
2019-04-10T16:07:34.195Z,28.90
2019-04-10T16:09:46.409Z,37.07
2019-04-10T16:11:45.980Z,25.63
2019-04-10T16:13:52.606Z,25.97
2019-04-10T16:15:58.907Z,27.90
2019-04-10T16:18:07.290Z,28.13
2019-04-10T16:20:19.682Z,32.53
2019-04-10T16:22:27.764Z,29.77
2019-04-10T16:24:31.282Z,27.20
2019-04-10T16:26:35.708Z,31.80
2019-04-10T16:28:39.721Z,28.23
2019-04-10T16:30:43.555Z,26.20
2019-04-10T16:32:47.571Z,29.53
2019-04-10T16:34:51.219Z,29.47
2019-04-10T16:36:54.709Z,29.23
2019-04-10T16:38:58.561Z,29.50
2019-04-10T16:41:02.786Z,30.77
2019-04-10T16:43:07.875Z,26.93
2019-04-10T16:45:13.571Z,30.27
2019-04-10T16:47:17.647Z,28.43
2019-04-10T16:49:22.514Z,31.43
2019-04-10T16:51:26.596Z,34.03
2019-04-10T16:53:30.168Z,36.87
2019-04-10T16:55:34.600Z,37.33
2019-04-10T16:57:38.792Z,29.27
2019-04-10T16:59:42.424Z,31.87
2019-04-10T17:01:46.821Z,31.13
2019-04-10T17:03:50.848Z,28.37
2019-04-10T17:05:55.487Z,30.97
2019-04-10T17:07:59.582Z,27.67
2019-04-10T17:10:14.035Z,27.70
2019-04-10T17:12:11.649Z,28.93
2019-04-10T17:14:15.228Z,23.80
2019-04-10T17:16:19.797Z,32.70
2019-04-10T17:18:25.719Z,25.70
2019-04-10T17:20:30.744Z,32.27
2019-04-10T17:22:42.056Z,30.50
2019-04-10T17:24:41.610Z,29.50
2019-04-10T17:26:45.329Z,28.77
2019-04-10T17:28:50.309Z,25.87
2019-04-10T17:30:54.212Z,37.57
2019-04-10T17:32:58.107Z,36.33
2019-04-10T17:35:03.166Z,33.50
2019-04-10T17:37:07.550Z,44.43
2019-04-10T17:39:13.345Z,37.67
2019-04-10T17:41:17.698Z,31.87
2019-04-10T17:43:21.642Z,32.23
2019-04-10T17:45:27.179Z,30.03
2019-04-10T17:47:31.326Z,20.50
2019-04-10T17:49:35.850Z,19.37
2019-04-10T17:51:39.711Z,30.70
2019-04-10T17:53:45.475Z,20.93
2019-04-10T17:55:49.701Z,18.37
2019-04-10T17:57:56.097Z,18.43
2019-04-10T17:59:58.951Z,22.23
2019-04-10T18:02:07.455Z,18.43
2019-04-10T18:04:11.101Z,17.43
2019-04-10T18:06:15.250Z,20.93
2019-04-10T18:08:18.984Z,33.37
2019-04-10T18:10:22.866Z,18.13
2019-04-10T18:12:26.394Z,17.93
2019-04-10T18:14:31.215Z,20.93
2019-04-10T18:16:36.174Z,25.90
2019-04-10T18:18:40.201Z,36.87
2019-04-10T18:20:44.411Z,28.90
2019-04-10T18:22:48.976Z,39.77
2019-04-10T18:24:53.746Z,33.13
2019-04-10T18:26:58.497Z,38.37
2019-04-10T18:29:05.813Z,35.17
2019-04-10T18:31:10.384Z,24.30
2019-04-10T18:33:14.505Z,23.57
2019-04-10T18:35:18.450Z,23.87
2019-04-10T18:37:25.121Z,26.90
2019-04-10T18:39:27.577Z,25.37
2019-04-10T18:41:31.861Z,21.47
2019-04-10T18:43:36.135Z,24.70
2019-04-10T18:45:42.023Z,52.23
2019-04-10T18:47:46.101Z,39.03
2019-04-10T18:49:49.963Z,26.17
2019-04-10T18:51:54.280Z,31.43
2019-04-10T18:53:58.178Z,56.33
2019-04-10T18:56:03.004Z,34.17
2019-04-10T18:58:09.617Z,20.57
2019-04-10T19:00:32.359Z,19.87
2019-04-10T19:02:44.000Z,25.50
2019-04-10T19:04:52.926Z,27.47
2019-04-10T19:06:58.796Z,31.20
2019-04-10T19:09:11.170Z,45.93
2019-04-10T19:11:19.990Z,24.90
2019-04-10T19:13:14.998Z,36.83
2019-04-10T19:15:18.906Z,26.35
2019-04-10T19:17:22.796Z,25.27
2019-04-10T19:19:28.108Z,18.25
2019-04-10T19:21:31.734Z,20.50
2019-04-10T19:23:35.548Z,48.07
2019-04-10T19:25:39.459Z,25.03
2019-04-10T19:27:44.453Z,31.97
2019-04-10T19:29:48.757Z,26.63
2019-04-10T19:31:54.287Z,19.92
2019-04-10T19:33:59.025Z,20.73
2019-04-10T19:36:03.669Z,36.35
2019-04-10T19:38:09.249Z,22.87
2019-04-10T19:40:13.920Z,19.37
2019-04-10T19:42:18.070Z,20.40
2019-04-10T19:44:23.102Z,16.87
2019-04-10T19:46:27.414Z,20.27
2019-04-10T19:48:31.643Z,20.37
2019-04-10T19:50:35.487Z,23.33
2019-04-10T19:52:40.314Z,20.17
2019-04-10T19:54:44.197Z,24.27
2019-04-10T19:56:48.864Z,19.02
2019-04-10T19:58:56.539Z,21.02
2019-04-10T20:01:01.121Z,27.05
2019-04-10T20:03:05.730Z,19.07
2019-04-10T20:05:09.811Z,19.95
2019-04-10T20:07:13.960Z,22.93
2019-04-10T20:09:18.516Z,21.85
2019-04-10T20:11:31.888Z,26.97
2019-04-10T20:13:28.648Z,18.62
2019-04-10T20:15:32.540Z,19.27
2019-04-10T20:17:37.814Z,19.70
2019-04-10T20:19:42.557Z,23.67
2019-04-10T20:21:46.382Z,20.80
2019-04-10T20:23:50.529Z,22.60
2019-04-10T20:25:54.835Z,18.87
2019-04-10T20:27:59.043Z,22.22
2019-04-10T20:30:03.726Z,19.40
2019-04-10T20:32:08.073Z,20.45
2019-04-10T20:34:12.186Z,18.85
2019-04-10T20:36:17.153Z,20.60
2019-04-10T20:38:21.343Z,18.75
2019-04-10T20:40:25.646Z,18.17
2019-04-10T20:42:29.981Z,20.00
2019-04-10T20:44:34.506Z,18.30
2019-04-10T20:46:38.672Z,18.80
2019-04-10T20:48:42.563Z,23.15
2019-04-10T20:50:46.718Z,19.67
2019-04-10T20:52:51.555Z,17.95
2019-04-10T20:54:55.755Z,19.25
2019-04-10T20:56:59.605Z,18.17
2019-04-10T20:59:03.575Z,20.00
2019-04-10T21:01:08.335Z,19.75
2019-04-10T21:03:13.512Z,20.85
2019-04-10T21:05:18.073Z,21.05
2019-04-10T21:07:23.345Z,21.90
2019-04-10T21:09:27.792Z,17.27
2019-04-10T21:11:32.026Z,20.35
2019-04-10T21:13:36.298Z,18.80
2019-04-10T21:15:40.161Z,17.55
2019-04-10T21:17:44.421Z,18.52
2019-04-10T21:19:49.456Z,19.27
2019-04-10T21:21:53.585Z,18.15
2019-04-10T21:23:57.699Z,18.32
2019-04-10T21:26:01.927Z,20.72
2019-04-10T21:28:06.144Z,22.37
2019-04-10T21:30:24.588Z,22.20
2019-04-10T21:32:35.945Z,18.67
2019-04-10T21:34:41.190Z,16.80
2019-04-10T21:36:45.584Z,18.20
2019-04-10T21:38:50.670Z,16.87
2019-04-10T21:40:55.285Z,17.73
2019-04-10T21:42:59.460Z,20.55
2019-04-10T21:45:03.897Z,20.55
2019-04-10T21:47:11.081Z,17.80
2019-04-10T21:49:13.644Z,16.62
2019-04-10T21:51:18.946Z,16.35
2019-04-10T21:53:24.047Z,15.68
2019-04-10T21:55:29.041Z,17.98
2019-04-10T21:57:34.167Z,19.23
2019-04-10T21:59:38.904Z,15.45
2019-04-10T22:01:43.422Z,16.50
2019-04-10T22:03:47.819Z,15.38
2019-04-10T22:05:53.591Z,18.15
2019-04-10T22:07:59.150Z,18.67
2019-04-10T22:10:15.460Z,18.23
2019-04-10T22:12:28.592Z,16.87
2019-04-10T22:14:28.206Z,14.78
2019-04-10T22:16:33.617Z,17.23
2019-04-10T22:18:37.814Z,16.27
2019-04-10T22:20:41.732Z,17.40
2019-04-10T22:22:46.891Z,19.52
2019-04-10T22:24:51.284Z,15.15
2019-04-10T22:26:55.337Z,16.52
2019-04-10T22:28:59.585Z,18.40
2019-04-10T22:31:03.811Z,17.12
2019-04-10T22:33:07.772Z,16.35
2019-04-10T22:35:11.766Z,16.80
2019-04-10T22:37:16.963Z,19.77
2019-04-10T22:39:21.171Z,17.20
2019-04-10T22:41:30.689Z,18.77
2019-04-10T22:43:30.827Z,23.92
2019-04-10T22:45:36.011Z,17.70
2019-04-10T22:47:39.943Z,17.90
2019-04-10T22:49:45.040Z,20.68
2019-04-10T22:51:49.654Z,16.40
2019-04-10T22:53:53.566Z,28.25
2019-04-10T22:55:58.446Z,19.10
2019-04-10T22:58:02.726Z,18.02
2019-04-10T23:00:07.699Z,17.25
2019-04-10T23:02:14.492Z,17.42
2019-04-10T23:04:17.857Z,20.62
2019-04-10T23:06:23.013Z,17.82
2019-04-10T23:08:27.375Z,15.75
2019-04-10T23:10:31.527Z,17.45
2019-04-10T23:12:35.735Z,17.90
2019-04-10T23:14:39.845Z,18.60
2019-04-10T23:16:44.284Z,16.85
2019-04-10T23:18:48.176Z,18.32
2019-04-10T23:20:52.381Z,17.73
2019-04-10T23:22:56.777Z,17.95
2019-04-10T23:25:01.564Z,20.70
2019-04-10T23:27:06.765Z,21.40
2019-04-10T23:29:11.764Z,19.10
2019-04-10T23:31:15.899Z,18.85
2019-04-10T23:33:19.775Z,20.15
2019-04-10T23:35:23.582Z,17.40
2019-04-10T23:37:28.849Z,17.82
2019-04-10T23:39:32.811Z,23.38
2019-04-10T23:41:37.906Z,17.27
2019-04-10T23:43:41.961Z,19.62
2019-04-10T23:45:46.055Z,19.90
2019-04-10T23:47:52.630Z,18.60
2019-04-10T23:49:57.558Z,18.65
2019-04-10T23:52:01.718Z,22.80
2019-04-10T23:54:05.915Z,19.80
2019-04-10T23:56:10.143Z,19.82
2019-04-10T23:58:13.986Z,20.50
